Time;durP1;ratioP1;P1;durP2;ratioP2;P2;SDS_P1;SDS_P2;PMS_P1;PMS_P2;Temp;Humidity;BMP_temperature;BMP_pressure;BME280_temperature;BME280_humidity;BME280_pressure;Samples;Min_cycle;Max_cycle;Signal;HPM_P1;HPM_P2
2021/07/27 00:02:09;;;;;;;;;;;24.10;63.90;;;;;;5025094;28;19917;-73
2021/07/27 00:04:34;;;;;;;;;;;24.20;63.90;;;;;;5025953;28;20278;-73
2021/07/27 00:07:00;;;;;;;;;;;24.20;63.90;;;;;;5026653;28;19913;-74
2021/07/27 00:09:25;;;;;;;;;;;24.20;63.90;;;;;;5026182;28;19913;-73
2021/07/27 00:11:51;;;;;;;;;;;24.20;63.90;;;;;;5026609;28;19967;-74
2021/07/27 00:14:16;;;;;;;;;;;24.20;63.90;;;;;;5024709;28;19913;-74
2021/07/27 00:16:42;;;;;;;;;;;24.20;63.90;;;;;;5026256;28;19913;-73
2021/07/27 00:19:07;;;;;;;;;;;24.10;63.80;;;;;;5026174;28;19917;-73
2021/07/27 00:21:32;;;;;;;;;;;24.10;63.80;;;;;;5024636;28;20389;-73
2021/07/27 00:23:58;;;;;;;;;;;24.10;63.80;;;;;;5025905;28;20051;-74
2021/07/27 00:26:25;;;;;;;;;;;24.10;63.70;;;;;;5024327;28;20398;-72
2021/07/27 00:28:50;;;;;;;;;;;24.10;63.80;;;;;;5025838;28;19917;-73
2021/07/27 00:31:17;;;;;;;;;;;24.10;63.90;;;;;;5024583;28;20213;-73
2021/07/27 00:33:43;;;;;;;;;;;24.10;63.90;;;;;;5024243;28;19917;-73
2021/07/27 00:36:09;;;;;;;;;;;24.10;63.90;;;;;;5024641;28;19913;-73
2021/07/27 00:38:34;;;;;;;;;;;24.10;63.80;;;;;;5025367;28;19913;-73
2021/07/27 00:41:00;;;;;;;;;;;24.10;63.80;;;;;;5025300;28;19923;-73
2021/07/27 00:43:25;;;;;;;;;;;24.10;63.80;;;;;;5025495;28;19936;-73
2021/07/27 00:45:51;;;;;;;;;;;24.10;63.80;;;;;;5025104;28;19917;-73
2021/07/27 00:48:16;;;;;;;;;;;24.10;63.80;;;;;;5024763;28;19921;-74
2021/07/27 00:50:41;;;;;;;;;;;24.10;63.80;;;;;;5024260;28;19935;-74
2021/07/27 00:53:07;;;;;;;;;;;24.10;63.70;;;;;;5023505;28;22073;-74
2021/07/27 00:55:33;;;;;;;;;;;24.10;63.80;;;;;;5025020;28;19921;-74
2021/07/27 00:57:58;;;;;;;;;;;24.10;63.70;;;;;;5025158;28;20000;-73
2021/07/27 01:00:24;;;;;;;;;;;24.10;63.70;;;;;;5023707;28;20341;-74
2021/07/27 01:02:49;;;;;;;;;;;24.10;63.60;;;;;;5023680;28;19917;-74
2021/07/27 01:05:15;;;;;;;;;;;24.10;63.50;;;;;;5024951;28;19914;-73
2021/07/27 01:07:40;;;;;;;;;;;24.10;63.50;;;;;;5027964;28;19917;-73
2021/07/27 01:10:06;;;;;;;;;;;24.10;63.40;;;;;;5010910;28;19914;-74
2021/07/27 01:12:33;;;;;;;;;;;24.10;63.40;;;;;;5027567;28;19979;-73
2021/07/27 01:14:58;;;;;;;;;;;24.10;63.40;;;;;;5027110;28;19979;-74
2021/07/27 01:17:24;;;;;;;;;;;24.10;63.40;;;;;;5026677;28;20392;-74
2021/07/27 01:19:55;;;;;;;;;;;24.10;63.30;;;;;;5028481;28;19917;-73
2021/07/27 01:43:57;;;;;;;;;;;24.00;62.90;;;;;;5028307;28;19925;-73
2021/07/27 01:46:23;;;;;;;;;;;24.00;62.90;;;;;;5026474;28;19924;-72
2021/07/27 01:48:49;;;;;;;;;;;24.00;62.90;;;;;;5027903;28;19917;-74
2021/07/27 01:51:16;;;;;;;;;;;24.00;62.80;;;;;;5027827;28;19917;-75
2021/07/27 01:53:50;;;;;;;;;;;24.00;62.80;;;;;;5028528;28;20298;-73
2021/07/27 01:56:15;;;;;;;;;;;24.00;62.80;;;;;;5026104;28;19967;-74
2021/07/27 01:58:41;;;;;;;;;;;24.00;62.90;;;;;;5025376;28;19920;-73
2021/07/27 02:01:06;;;;;;;;;;;23.90;62.90;;;;;;5027290;28;19979;-74
2021/07/27 02:03:32;;;;;;;;;;;24.00;62.90;;;;;;5026964;28;21000;-74
2021/07/27 02:05:57;;;;;;;;;;;23.90;62.90;;;;;;5026444;28;20358;-74
2021/07/27 02:08:22;;;;;;;;;;;23.90;62.90;;;;;;5025871;28;19921;-72
2021/07/27 02:10:53;;;;;;;;;;;24.00;62.90;;;;;;5028080;28;19917;-74
2021/07/27 02:13:29;;;;;;;;;;;23.90;62.80;;;;;;5028055;28;19920;-73
2021/07/27 02:15:54;;;;;;;;;;;23.90;62.80;;;;;;5026131;28;19928;-74
2021/07/27 02:18:23;;;;;;;;;;;23.90;62.80;;;;;;5025369;28;19917;-74
2021/07/27 02:20:48;;;;;;;;;;;23.90;62.70;;;;;;5026010;28;19923;-73
2021/07/27 02:23:13;;;;;;;;;;;23.90;62.70;;;;;;5027691;28;19921;-74
2021/07/27 02:25:39;;;;;;;;;;;23.90;62.60;;;;;;5026565;28;19913;-73
2021/07/27 02:28:06;;;;;;;;;;;23.90;62.60;;;;;;5027329;28;19978;-74
2021/07/27 02:30:36;;;;;;;;;;;23.90;62.70;;;;;;5026122;28;19948;-74
2021/07/27 02:33:02;;;;;;;;;;;23.90;62.60;;;;;;5027814;28;19914;-73
2021/07/27 02:35:28;;;;;;;;;;;23.90;62.70;;;;;;5027332;28;20309;-73
2021/07/27 02:37:54;;;;;;;;;;;23.90;62.60;;;;;;5027379;28;19921;-73
2021/07/27 02:40:19;;;;;;;;;;;23.90;62.60;;;;;;5027081;28;19931;-73
2021/07/27 02:42:45;;;;;;;;;;;23.90;62.60;;;;;;5027376;28;20362;-74
2021/07/27 02:45:11;;;;;;;;;;;23.90;62.60;;;;;;5027595;28;20279;-74
2021/07/27 02:47:40;;;;;;;;;;;23.90;62.50;;;;;;5027299;28;19917;-73
2021/07/27 02:50:05;;;;;;;;;;;23.90;62.50;;;;;;5025848;28;19953;-73
2021/07/27 02:52:32;;;;;;;;;;;23.80;62.50;;;;;;5027479;28;20006;-73
2021/07/27 02:54:57;;;;;;;;;;;23.80;62.50;;;;;;5025685;28;20090;-74
2021/07/27 02:57:22;;;;;;;;;;;23.80;62.50;;;;;;5026929;28;20341;-73
2021/07/27 02:59:48;;;;;;;;;;;23.90;62.50;;;;;;5026986;28;19925;-73
2021/07/27 03:02:19;;;;;;;;;;;23.80;62.40;;;;;;5026874;28;19937;-74
2021/07/27 03:04:45;;;;;;;;;;;23.90;62.50;;;;;;5025511;28;19978;-74
2021/07/27 03:07:18;;;;;;;;;;;23.80;62.40;;;;;;5027430;28;19914;-74
2021/07/27 03:10:17;;;;;;;;;;;23.80;62.30;;;;;;5026473;28;19928;-74
2021/07/27 03:12:29;;;;;;;;;;;23.80;62.30;;;;;;5025627;28;19914;-74
2021/07/27 03:15:00;;;;;;;;;;;23.80;62.20;;;;;;5025230;28;19917;-74
2021/07/27 03:17:26;;;;;;;;;;;23.80;62.10;;;;;;5026756;28;20295;-74
2021/07/27 03:19:51;;;;;;;;;;;23.80;62.20;;;;;;5025216;28;19917;-74
2021/07/27 03:22:17;;;;;;;;;;;23.80;62.20;;;;;;5025328;28;19921;-74
2021/07/27 03:24:43;;;;;;;;;;;23.80;62.20;;;;;;5027277;28;19917;-72
2021/07/27 03:27:08;;;;;;;;;;;23.80;62.20;;;;;;5024921;28;19921;-74
2021/07/27 03:29:34;;;;;;;;;;;23.80;62.20;;;;;;5026735;28;20553;-74
2021/07/27 03:31:59;;;;;;;;;;;23.80;62.20;;;;;;5027518;28;20067;-73
2021/07/27 03:34:25;;;;;;;;;;;23.80;62.30;;;;;;5027792;28;20401;-74
2021/07/27 03:36:50;;;;;;;;;;;23.80;62.20;;;;;;5028029;28;19968;-74
2021/07/27 03:39:16;;;;;;;;;;;23.80;62.30;;;;;;5049172;23;19924;-59
2021/07/27 03:41:42;;;;;;;;;;;23.80;62.50;;;;;;5034254;28;20321;-60
2021/07/27 03:44:07;;;;;;;;;;;23.80;62.40;;;;;;5037482;28;19938;-60
2021/07/27 03:46:33;;;;;;;;;;;23.80;62.50;;;;;;5042523;28;20274;-59
2021/07/27 03:48:58;;;;;;;;;;;23.70;62.40;;;;;;5042250;28;19954;-60
2021/07/27 03:51:24;;;;;;;;;;;23.70;62.40;;;;;;5043333;28;20485;-59
2021/07/27 03:53:49;;;;;;;;;;;23.80;62.50;;;;;;5042553;28;19917;-59
2021/07/27 03:56:15;;;;;;;;;;;23.70;62.30;;;;;;5042475;28;19947;-59
2021/07/27 03:58:43;;;;;;;;;;;23.70;62.20;;;;;;5041528;28;20477;-59
2021/07/27 04:01:08;;;;;;;;;;;23.70;62.10;;;;;;5042332;28;19932;-59
2021/07/27 04:03:34;;;;;;;;;;;23.70;62.10;;;;;;5041088;28;19920;-60
2021/07/27 04:05:59;;;;;;;;;;;23.70;62.40;;;;;;5042195;28;20565;-60
2021/07/27 04:08:25;;;;;;;;;;;23.70;62.20;;;;;;5040991;28;19913;-57
2021/07/27 04:10:50;;;;;;;;;;;23.70;62.20;;;;;;5042448;28;19919;-58
2021/07/27 04:13:16;;;;;;;;;;;23.70;62.20;;;;;;5028690;28;19913;-60
2021/07/27 04:15:41;;;;;;;;;;;23.70;62.20;;;;;;5022097;28;19924;-60
2021/07/27 04:18:07;;;;;;;;;;;23.70;62.30;;;;;;5021774;28;20381;-59
2021/07/27 04:20:32;;;;;;;;;;;23.70;62.30;;;;;;5022192;28;19917;-59
2021/07/27 04:22:58;;;;;;;;;;;23.70;62.30;;;;;;5021759;28;20270;-60
2021/07/27 04:25:23;;;;;;;;;;;23.70;62.40;;;;;;5022297;28;19944;-59
2021/07/27 04:27:49;;;;;;;;;;;23.70;62.40;;;;;;5038985;23;19933;-57
2021/07/27 04:30:14;;;;;;;;;;;23.70;62.50;;;;;;5032083;28;20003;-58
2021/07/27 04:32:40;;;;;;;;;;;23.70;62.50;;;;;;5040118;28;19913;-59
2021/07/27 04:35:06;;;;;;;;;;;23.70;62.50;;;;;;5042817;28;19916;-58
2021/07/27 04:37:32;;;;;;;;;;;23.70;62.60;;;;;;5019781;28;19917;-60
2021/07/27 04:39:57;;;;;;;;;;;23.70;62.60;;;;;;5040734;28;20203;-60
2021/07/27 04:42:23;;;;;;;;;;;23.70;62.60;;;;;;5044982;28;19917;-55
2021/07/27 04:44:48;;;;;;;;;;;23.70;62.70;;;;;;5044603;28;20378;-57
2021/07/27 04:47:14;;;;;;;;;;;23.70;62.70;;;;;;5044990;28;19913;-57
2021/07/27 04:49:39;;;;;;;;;;;23.70;62.70;;;;;;5044690;28;20002;-56
2021/07/27 04:52:05;;;;;;;;;;;23.70;62.70;;;;;;5043979;28;20290;-56
2021/07/27 04:54:41;;;;;;;;;;;23.60;62.70;;;;;;5045327;28;19949;-56
2021/07/27 04:57:08;;;;;;;;;;;23.70;62.70;;;;;;5045965;28;19912;-56
2021/07/27 04:59:34;;;;;;;;;;;23.70;62.70;;;;;;5044991;28;19917;-54
2021/07/27 05:01:59;;;;;;;;;;;23.70;62.70;;;;;;5045520;28;19916;-56
2021/07/27 05:04:29;;;;;;;;;;;23.70;62.70;;;;;;5045912;28;20377;-58
2021/07/27 05:06:55;;;;;;;;;;;23.70;62.70;;;;;;5045423;28;19917;-58
2021/07/27 05:09:20;;;;;;;;;;;23.70;62.80;;;;;;5045903;28;20309;-59
2021/07/27 05:11:46;;;;;;;;;;;23.70;62.80;;;;;;5044580;28;19921;-59
2021/07/27 05:14:11;;;;;;;;;;;23.70;62.80;;;;;;5044276;28;20289;-60
2021/07/27 05:16:37;;;;;;;;;;;23.70;62.80;;;;;;5045050;28;19958;-56
2021/07/27 05:19:02;;;;;;;;;;;23.60;62.80;;;;;;5045165;28;19917;-57
2021/07/27 05:21:28;;;;;;;;;;;23.60;62.90;;;;;;5044810;28;19921;-56
2021/07/27 05:23:55;;;;;;;;;;;23.60;63.00;;;;;;5045037;28;19913;-56
2021/07/27 05:26:21;;;;;;;;;;;23.70;63.00;;;;;;5044938;28;19917;-56
2021/07/27 05:28:46;;;;;;;;;;;23.70;63.10;;;;;;5044332;28;20011;-57
2021/07/27 05:31:12;;;;;;;;;;;23.60;63.00;;;;;;5044346;28;19923;-57
2021/07/27 05:33:37;;;;;;;;;;;23.60;63.10;;;;;;5044505;28;19943;-58
2021/07/27 05:36:05;;;;;;;;;;;23.70;63.20;;;;;;5042371;28;19913;-54
2021/07/27 05:38:30;;;;;;;;;;;23.70;63.10;;;;;;5044455;28;19924;-57
2021/07/27 05:40:56;;;;;;;;;;;23.60;63.10;;;;;;5045043;28;19970;-57
2021/07/27 05:43:22;;;;;;;;;;;23.70;63.10;;;;;;5044335;28;21593;-59
2021/07/27 05:45:47;;;;;;;;;;;23.70;63.20;;;;;;5044210;28;19996;-57
2021/07/27 05:48:13;;;;;;;;;;;23.70;63.30;;;;;;5044037;28;19966;-58
2021/07/27 05:50:38;;;;;;;;;;;23.70;63.30;;;;;;5044104;28;19939;-59
2021/07/27 05:53:03;;;;;;;;;;;23.70;63.30;;;;;;5044403;28;19959;-59
2021/07/27 05:55:29;;;;;;;;;;;23.70;63.30;;;;;;5044668;28;20575;-56
2021/07/27 05:57:54;;;;;;;;;;;23.70;63.30;;;;;;5044403;28;19920;-58
2021/07/27 06:00:20;;;;;;;;;;;23.70;63.30;;;;;;5044172;28;19920;-59
2021/07/27 06:02:45;;;;;;;;;;;23.70;63.40;;;;;;5044386;28;20319;-59
2021/07/27 06:05:11;;;;;;;;;;;23.70;63.30;;;;;;5043714;28;19917;-57
2021/07/27 06:07:36;;;;;;;;;;;23.70;63.40;;;;;;5043097;28;20361;-56
2021/07/27 06:10:02;;;;;;;;;;;23.70;63.40;;;;;;5044078;28;19948;-60
2021/07/27 06:12:27;;;;;;;;;;;23.70;63.50;;;;;;5044300;28;20438;-59
2021/07/27 06:14:53;;;;;;;;;;;23.70;63.50;;;;;;5044147;28;20181;-58
2021/07/27 06:17:18;;;;;;;;;;;23.70;63.40;;;;;;5042922;28;19912;-59
2021/07/27 06:19:44;;;;;;;;;;;23.70;63.30;;;;;;5043615;28;19952;-58
2021/07/27 06:22:09;;;;;;;;;;;23.70;63.30;;;;;;5043631;28;19916;-56
2021/07/27 06:24:35;;;;;;;;;;;23.70;63.30;;;;;;5042809;28;20300;-59
2021/07/27 06:27:00;;;;;;;;;;;23.70;63.20;;;;;;5043901;28;19966;-58
2021/07/27 06:29:26;;;;;;;;;;;23.80;63.30;;;;;;5043200;28;19932;-57
2021/07/27 06:31:51;;;;;;;;;;;23.70;63.30;;;;;;5059295;28;20400;-59
2021/07/27 06:34:17;;;;;;;;;;;23.70;63.20;;;;;;5058357;28;19943;-59
2021/07/27 06:36:42;;;;;;;;;;;23.70;63.20;;;;;;5042618;28;20483;-58
2021/07/27 06:39:07;;;;;;;;;;;23.70;63.00;;;;;;5042621;28;19917;-55
2021/07/27 06:41:33;;;;;;;;;;;23.70;63.00;;;;;;5043544;28;19921;-56
2021/07/27 06:43:58;;;;;;;;;;;23.70;63.00;;;;;;5043322;28;19931;-57
2021/07/27 06:46:24;;;;;;;;;;;23.70;63.00;;;;;;5044091;28;20290;-59
2021/07/27 06:48:49;;;;;;;;;;;23.70;62.90;;;;;;5042315;28;19966;-58
2021/07/27 06:51:16;;;;;;;;;;;23.70;62.90;;;;;;5043236;28;20294;-58
2021/07/27 06:53:41;;;;;;;;;;;23.70;62.90;;;;;;5042656;28;19920;-54
2021/07/27 06:56:07;;;;;;;;;;;23.70;62.90;;;;;;5043353;28;19913;-58
2021/07/27 06:58:33;;;;;;;;;;;23.70;62.90;;;;;;5042273;28;19916;-59
2021/07/27 07:00:59;;;;;;;;;;;23.70;63.00;;;;;;5043399;28;20534;-55
2021/07/27 07:03:25;;;;;;;;;;;23.80;63.00;;;;;;5043454;28;20051;-56
2021/07/27 07:05:50;;;;;;;;;;;23.80;62.90;;;;;;5042844;28;20494;-58
2021/07/27 07:08:16;;;;;;;;;;;23.70;62.80;;;;;;5042698;28;19913;-59
2021/07/27 07:10:41;;;;;;;;;;;23.70;62.90;;;;;;5042148;28;19923;-59
2021/07/27 07:13:07;;;;;;;;;;;23.80;62.90;;;;;;5042200;28;20278;-59
2021/07/27 07:15:32;;;;;;;;;;;23.80;62.90;;;;;;5042598;28;19913;-60
2021/07/27 07:17:58;;;;;;;;;;;23.70;62.90;;;;;;5042600;28;19924;-56
2021/07/27 07:20:24;;;;;;;;;;;23.80;62.90;;;;;;5042806;28;19923;-56
2021/07/27 07:22:49;;;;;;;;;;;23.80;63.00;;;;;;5042306;28;19924;-56
2021/07/27 07:25:15;;;;;;;;;;;23.80;63.00;;;;;;5042637;28;19913;-56
2021/07/27 07:27:40;;;;;;;;;;;23.70;62.90;;;;;;5041763;28;19921;-55
2021/07/27 07:30:06;;;;;;;;;;;23.80;62.90;;;;;;5056836;28;19935;-57
2021/07/27 07:32:31;;;;;;;;;;;23.80;63.10;;;;;;5042006;28;19921;-58
2021/07/27 07:34:57;;;;;;;;;;;23.80;63.10;;;;;;5042430;28;19917;-56
2021/07/27 07:37:22;;;;;;;;;;;23.80;63.00;;;;;;5041555;28;19917;-55
2021/07/27 07:39:48;;;;;;;;;;;23.80;63.10;;;;;;5041618;28;19919;-54
2021/07/27 07:42:13;;;;;;;;;;;23.80;63.00;;;;;;5042415;28;19917;-54
2021/07/27 07:44:38;;;;;;;;;;;23.80;62.90;;;;;;5041945;28;19913;-54
2021/07/27 07:47:04;;;;;;;;;;;23.80;62.90;;;;;;5042246;28;20292;-54
2021/07/27 07:49:29;;;;;;;;;;;23.80;62.80;;;;;;5041526;28;20001;-55
2021/07/27 07:51:56;;;;;;;;;;;23.80;62.90;;;;;;5041805;28;20443;-58
2021/07/27 07:54:24;;;;;;;;;;;23.80;62.90;;;;;;5041707;28;20441;-55
2021/07/27 07:56:50;;;;;;;;;;;23.80;63.00;;;;;;5042810;28;20439;-59
2021/07/27 07:59:15;;;;;;;;;;;23.80;63.10;;;;;;5042439;28;19917;-60
2021/07/27 08:01:49;;;;;;;;;;;23.80;63.10;;;;;;5041238;28;20348;-58
2021/07/27 08:04:14;;;;;;;;;;;23.80;63.10;;;;;;5043016;28;19917;-60
2021/07/27 08:06:40;;;;;;;;;;;23.80;63.10;;;;;;5041375;28;19917;-61
2021/07/27 08:09:05;;;;;;;;;;;23.80;63.20;;;;;;5042341;28;20041;-61
2021/07/27 08:11:31;;;;;;;;;;;23.80;63.20;;;;;;5042962;28;19963;-58
2021/07/27 08:13:58;;;;;;;;;;;23.80;63.10;;;;;;5042799;28;20381;-59
2021/07/27 08:16:23;;;;;;;;;;;23.80;63.00;;;;;;5041962;28;20458;-58
2021/07/27 08:18:49;;;;;;;;;;;23.70;63.00;;;;;;5041852;28;19917;-60
2021/07/27 08:21:14;;;;;;;;;;;23.80;63.10;;;;;;5040886;28;19963;-61
2021/07/27 08:23:43;;;;;;;;;;;23.80;63.00;;;;;;5042501;28;19916;-59
2021/07/27 08:26:09;;;;;;;;;;;23.80;62.90;;;;;;5042804;28;20431;-60
2021/07/27 08:28:34;;;;;;;;;;;23.80;62.80;;;;;;5034605;28;19925;-59
2021/07/27 08:31:00;;;;;;;;;;;23.80;62.70;;;;;;5022577;28;20368;-56
2021/07/27 08:33:25;;;;;;;;;;;23.80;62.70;;;;;;5023304;28;20019;-60
2021/07/27 08:35:52;;;;;;;;;;;23.80;62.70;;;;;;5022667;28;19917;-60
2021/07/27 08:38:17;;;;;;;;;;;23.80;62.70;;;;;;5022205;28;20393;-61
2021/07/27 08:40:43;;;;;;;;;;;23.80;62.70;;;;;;5022445;28;20005;-60
2021/07/27 08:43:08;;;;;;;;;;;23.80;62.70;;;;;;5021046;28;20516;-58
2021/07/27 08:45:34;;;;;;;;;;;23.80;62.60;;;;;;5022243;28;19921;-60
2021/07/27 08:47:59;;;;;;;;;;;23.80;62.60;;;;;;5022048;28;20370;-59
2021/07/27 08:50:26;;;;;;;;;;;23.80;62.60;;;;;;5022653;28;19999;-61
2021/07/27 08:52:51;;;;;;;;;;;23.80;62.60;;;;;;5020774;28;19913;-61
2021/07/27 08:55:17;;;;;;;;;;;23.80;62.60;;;;;;5022225;28;19917;-60
2021/07/27 08:58:00;;;;;;;;;;;23.80;62.70;;;;;;5021893;28;20329;-60
2021/07/27 09:00:26;;;;;;;;;;;23.80;62.70;;;;;;5022434;28;19957;-60
2021/07/27 09:02:52;;;;;;;;;;;23.80;62.70;;;;;;5022188;28;19920;-61
2021/07/27 09:05:17;;;;;;;;;;;23.80;62.70;;;;;;5022067;28;19921;-61
2021/07/27 09:07:43;;;;;;;;;;;23.80;62.70;;;;;;5021701;28;19919;-59
2021/07/27 09:10:15;;;;;;;;;;;23.80;62.70;;;;;;5020615;28;20888;-61
2021/07/27 09:12:59;;;;;;;;;;;23.80;62.70;;;;;;5021920;28;19924;-60
2021/07/27 09:15:26;;;;;;;;;;;23.80;62.70;;;;;;5022143;28;19918;-60
2021/07/27 09:17:52;;;;;;;;;;;23.80;62.60;;;;;;5021748;28;20301;-60
2021/07/27 09:20:27;;;;;;;;;;;23.80;62.60;;;;;;5021940;28;19913;-60
2021/07/27 09:22:53;;;;;;;;;;;23.80;62.70;;;;;;5021486;28;19921;-61
2021/07/27 09:25:18;;;;;;;;;;;23.80;62.70;;;;;;5021828;28;20361;-61
2021/07/27 09:27:44;;;;;;;;;;;23.80;62.60;;;;;;5023661;28;20024;-58
2021/07/27 09:30:19;;;;;;;;;;;23.80;62.60;;;;;;5023930;28;20420;-60
2021/07/27 09:32:48;;;;;;;;;;;23.80;62.60;;;;;;5025399;28;19917;-59
2021/07/27 09:35:13;;;;;;;;;;;23.80;62.60;;;;;;5025163;28;19913;-60
2021/07/27 09:37:39;;;;;;;;;;;23.80;62.70;;;;;;5024692;28;20356;-60
2021/07/27 09:40:07;;;;;;;;;;;23.80;62.70;;;;;;5023430;28;19914;-61
2021/07/27 09:42:33;;;;;;;;;;;23.80;62.60;;;;;;5025490;28;20090;-61
2021/07/27 09:44:58;;;;;;;;;;;23.80;62.60;;;;;;5023635;28;20004;-59
2021/07/27 09:47:24;;;;;;;;;;;23.80;62.60;;;;;;5024076;28;19920;-57
2021/07/27 09:49:49;;;;;;;;;;;23.80;62.60;;;;;;5024323;28;19924;-58
2021/07/27 09:52:15;;;;;;;;;;;23.80;62.50;;;;;;5025086;28;19917;-59
2021/07/27 09:54:40;;;;;;;;;;;23.90;62.50;;;;;;5024615;28;20306;-60
2021/07/27 09:57:06;;;;;;;;;;;23.90;62.50;;;;;;5025085;28;19924;-59
2021/07/27 09:59:31;;;;;;;;;;;23.80;62.30;;;;;;5023067;28;19924;-59
2021/07/27 10:01:58;;;;;;;;;;;23.80;62.20;;;;;;5024046;28;19921;-59
2021/07/27 10:04:24;;;;;;;;;;;23.80;62.30;;;;;;5023290;28;19952;-61
2021/07/27 10:06:50;;;;;;;;;;;23.90;62.30;;;;;;5023472;28;20031;-61
2021/07/27 10:09:22;;;;;;;;;;;23.90;62.30;;;;;;5027714;28;19949;-61
2021/07/27 10:11:47;;;;;;;;;;;23.90;62.30;;;;;;5020573;28;19952;-61
2021/07/27 10:14:13;;;;;;;;;;;23.90;62.30;;;;;;5020210;28;19984;-56
2021/07/27 10:16:39;;;;;;;;;;;23.90;62.30;;;;;;5022768;28;19913;-60
2021/07/27 10:19:30;;;;;;;;;;;23.90;62.20;;;;;;5011261;28;19917;-61
2021/07/27 10:22:03;;;;;;;;;;;23.90;62.20;;;;;;5021384;28;19921;-61
2021/07/27 10:24:47;;;;;;;;;;;23.90;62.20;;;;;;5027835;28;19921;-61
2021/07/27 10:27:18;;;;;;;;;;;23.90;62.20;;;;;;5011185;28;19983;-55
2021/07/27 10:29:44;;;;;;;;;;;23.90;62.20;;;;;;5065099;22;19975;-63
2021/07/27 10:32:13;;;;;;;;;;;23.90;62.10;;;;;;5056621;28;20205;-63
2021/07/27 10:34:41;;;;;;;;;;;23.90;62.00;;;;;;5040791;28;19996;-63
2021/07/27 10:37:07;;;;;;;;;;;23.90;62.00;;;;;;5055234;28;20358;-60
2021/07/27 10:39:32;;;;;;;;;;;23.90;62.00;;;;;;5039826;28;19917;-59
2021/07/27 10:42:05;;;;;;;;;;;23.90;61.90;;;;;;5040874;28;19924;-61
2021/07/27 10:44:34;;;;;;;;;;;23.90;61.90;;;;;;5041464;28;20324;-61
2021/07/27 10:47:00;;;;;;;;;;;23.90;61.80;;;;;;5041337;28;20569;-62
2021/07/27 10:49:26;;;;;;;;;;;23.90;61.80;;;;;;5041620;28;19925;-61
2021/07/27 10:51:52;;;;;;;;;;;23.90;62.00;;;;;;5041272;28;19913;-59
2021/07/27 10:54:22;;;;;;;;;;;23.90;61.90;;;;;;5040234;28;20124;-62
2021/07/27 10:56:56;;;;;;;;;;;23.90;61.90;;;;;;5031695;28;19963;-59
2021/07/27 10:59:23;;;;;;;;;;;23.90;61.80;;;;;;5032483;28;20386;-61
2021/07/27 11:01:49;;;;;;;;;;;23.90;61.90;;;;;;5040530;28;19921;-60
2021/07/27 11:04:17;;;;;;;;;;;23.90;61.80;;;;;;5042115;28;19923;-61
2021/07/27 11:06:42;;;;;;;;;;;23.90;61.80;;;;;;5043142;28;19967;-62
2021/07/27 11:09:11;;;;;;;;;;;23.90;61.80;;;;;;5042262;28;19916;-62
2021/07/27 11:11:46;;;;;;;;;;;23.90;61.80;;;;;;5043048;28;19932;-61
2021/07/27 11:14:19;;;;;;;;;;;23.90;61.80;;;;;;5043388;28;19913;-61
2021/07/27 11:16:44;;;;;;;;;;;23.90;61.80;;;;;;5040906;28;19913;-60
2021/07/27 11:19:10;;;;;;;;;;;23.90;61.70;;;;;;5042919;28;19928;-62
2021/07/27 11:21:38;;;;;;;;;;;23.90;61.80;;;;;;5042867;28;20332;-61
2021/07/27 11:24:04;;;;;;;;;;;23.90;61.70;;;;;;5043405;28;19923;-62
2021/07/27 11:26:36;;;;;;;;;;;23.90;61.80;;;;;;5041737;28;19913;-61
2021/07/27 11:29:08;;;;;;;;;;;23.90;61.80;;;;;;5041209;28;19964;-62
2021/07/27 11:31:43;;;;;;;;;;;23.90;61.80;;;;;;5041670;28;20603;-60
2021/07/27 11:34:08;;;;;;;;;;;23.90;61.80;;;;;;5043047;28;20300;-59
2021/07/27 11:36:34;;;;;;;;;;;23.90;61.70;;;;;;5042558;28;19913;-62
2021/07/27 11:39:03;;;;;;;;;;;23.90;61.80;;;;;;5042009;28;20551;-61
2021/07/27 11:41:28;;;;;;;;;;;23.90;61.80;;;;;;5042839;28;19923;-62
2021/07/27 11:43:55;;;;;;;;;;;23.90;61.80;;;;;;5042273;28;19912;-60
2021/07/27 11:46:20;;;;;;;;;;;23.90;61.90;;;;;;5042485;28;20007;-63
2021/07/27 11:48:55;;;;;;;;;;;23.90;61.80;;;;;;5040943;28;19917;-61
2021/07/27 11:51:33;;;;;;;;;;;23.90;61.80;;;;;;5040390;28;19917;-60
2021/07/27 11:53:58;;;;;;;;;;;23.90;61.90;;;;;;5022174;28;19952;-60
2021/07/27 11:56:24;;;;;;;;;;;23.90;61.80;;;;;;5021297;28;19952;-63
2021/07/27 11:58:59;;;;;;;;;;;23.90;61.90;;;;;;5015769;28;20297;-62
2021/07/27 12:01:34;;;;;;;;;;;23.90;61.90;;;;;;5041216;28;20015;-60
2021/07/27 12:03:59;;;;;;;;;;;23.90;61.90;;;;;;5042278;28;19939;-63
2021/07/27 12:06:25;;;;;;;;;;;23.90;61.90;;;;;;5042324;28;19921;-60
2021/07/27 12:08:50;;;;;;;;;;;23.90;61.90;;;;;;5042348;28;19917;-63
2021/07/27 12:11:16;;;;;;;;;;;24.00;61.90;;;;;;5041289;28;19923;-62
2021/07/27 12:13:41;;;;;;;;;;;24.00;61.90;;;;;;5042820;28;20375;-62
2021/07/27 12:16:07;;;;;;;;;;;24.00;61.90;;;;;;5041518;28;19913;-61
2021/07/27 12:18:32;;;;;;;;;;;24.00;61.90;;;;;;5038820;28;19956;-60
2021/07/27 12:20:57;;;;;;;;;;;24.00;61.90;;;;;;5040321;28;19917;-62
2021/07/27 12:23:23;;;;;;;;;;;24.00;61.90;;;;;;5041285;28;20536;-63
2021/07/27 12:25:48;;;;;;;;;;;24.00;61.90;;;;;;5042268;28;19924;-62
2021/07/27 12:28:14;;;;;;;;;;;24.00;61.90;;;;;;5041853;28;19924;-61
2021/07/27 12:30:39;;;;;;;;;;;24.00;61.90;;;;;;5042124;28;19913;-61
2021/07/27 12:33:05;;;;;;;;;;;24.00;61.90;;;;;;5041797;28;20335;-62
2021/07/27 12:35:32;;;;;;;;;;;24.00;61.90;;;;;;5041962;28;20274;-61
2021/07/27 12:37:57;;;;;;;;;;;24.00;61.90;;;;;;5041718;28;19913;-60
2021/07/27 12:40:23;;;;;;;;;;;24.00;61.90;;;;;;5041612;28;19970;-61
2021/07/27 12:42:48;;;;;;;;;;;24.00;61.70;;;;;;5040746;28;19944;-60
2021/07/27 12:45:14;;;;;;;;;;;24.00;61.70;;;;;;5040354;28;20286;-60
2021/07/27 12:47:39;;;;;;;;;;;24.00;61.70;;;;;;5040539;28;19916;-61
2021/07/27 12:50:05;;;;;;;;;;;24.00;61.60;;;;;;5040899;28;19913;-62
2021/07/27 12:52:30;;;;;;;;;;;24.00;61.60;;;;;;5041272;28;19917;-62
2021/07/27 12:54:56;;;;;;;;;;;24.00;61.50;;;;;;5041396;28;19919;-61
2021/07/27 12:57:21;;;;;;;;;;;24.00;61.60;;;;;;5035715;28;19974;-60
2021/07/27 12:59:47;;;;;;;;;;;24.00;61.60;;;;;;5041602;28;20267;-62
2021/07/27 13:02:12;;;;;;;;;;;24.00;61.50;;;;;;5042512;28;19921;-63
2021/07/27 13:04:38;;;;;;;;;;;24.10;61.60;;;;;;5046014;28;19913;-62
2021/07/27 13:07:03;;;;;;;;;;;24.10;61.60;;;;;;5044906;28;19921;-61
2021/07/27 13:09:28;;;;;;;;;;;24.10;61.60;;;;;;5043243;28;20467;-60
2021/07/27 13:11:54;;;;;;;;;;;24.10;61.60;;;;;;5044247;28;20361;-62
2021/07/27 13:14:19;;;;;;;;;;;24.10;61.50;;;;;;5045253;28;19948;-62
2021/07/27 13:16:45;;;;;;;;;;;24.10;61.50;;;;;;5044261;28;19923;-60
2021/07/27 13:19:10;;;;;;;;;;;24.10;61.40;;;;;;5045551;28;19958;-63
2021/07/27 13:21:36;;;;;;;;;;;24.10;61.50;;;;;;5044731;28;19936;-60
2021/07/27 13:24:04;;;;;;;;;;;24.10;61.50;;;;;;5046055;28;19913;-61
2021/07/27 13:26:32;;;;;;;;;;;24.10;61.50;;;;;;5044256;28;19920;-61
2021/07/27 13:28:57;;;;;;;;;;;24.10;61.50;;;;;;5043560;28;19935;-61
2021/07/27 13:31:23;;;;;;;;;;;24.10;61.60;;;;;;5044236;28;20274;-60
2021/07/27 13:33:50;;;;;;;;;;;24.10;61.40;;;;;;5044699;28;19984;-62
2021/07/27 13:36:15;;;;;;;;;;;24.10;61.50;;;;;;5043985;28;19925;-61
2021/07/27 13:38:42;;;;;;;;;;;24.10;61.40;;;;;;5044104;28;19919;-61
2021/07/27 13:41:08;;;;;;;;;;;24.10;61.50;;;;;;5043853;28;20011;-61
2021/07/27 13:43:33;;;;;;;;;;;24.10;61.30;;;;;;5043854;28;20015;-61
2021/07/27 13:45:59;;;;;;;;;;;24.10;61.30;;;;;;5043609;28;19917;-62
2021/07/27 13:48:24;;;;;;;;;;;24.10;61.30;;;;;;5042700;28;19924;-62
2021/07/27 13:50:49;;;;;;;;;;;24.10;61.40;;;;;;5043157;28;20271;-62
2021/07/27 13:53:15;;;;;;;;;;;24.10;61.40;;;;;;5045166;28;19912;-61
2021/07/27 13:55:40;;;;;;;;;;;24.10;61.40;;;;;;5045397;28;19917;-60
2021/07/27 13:58:06;;;;;;;;;;;24.10;61.40;;;;;;5042174;28;19920;-63
2021/07/27 14:00:31;;;;;;;;;;;24.10;61.40;;;;;;5044483;28;20424;-63
2021/07/27 14:02:57;;;;;;;;;;;24.10;61.40;;;;;;5044232;28;19917;-63
2021/07/27 14:05:23;;;;;;;;;;;24.10;61.40;;;;;;5044694;28;19917;-61
2021/07/27 14:07:49;;;;;;;;;;;24.20;61.50;;;;;;5043835;28;20019;-60
2021/07/27 14:10:14;;;;;;;;;;;24.10;61.40;;;;;;5044810;28;20270;-60
2021/07/27 14:12:40;;;;;;;;;;;24.10;61.30;;;;;;5043535;28;19919;-61
2021/07/27 14:15:06;;;;;;;;;;;24.20;61.30;;;;;;5043441;28;20339;-61
2021/07/27 14:17:32;;;;;;;;;;;24.10;61.30;;;;;;5042247;28;19917;-62
2021/07/27 14:19:58;;;;;;;;;;;24.10;61.40;;;;;;5041940;28;19947;-63
2021/07/27 14:22:24;;;;;;;;;;;24.10;61.30;;;;;;5044334;28;20512;-62
2021/07/27 14:24:49;;;;;;;;;;;24.20;61.30;;;;;;5044304;28;19913;-61
2021/07/27 14:27:15;;;;;;;;;;;24.10;61.20;;;;;;5042161;28;19923;-63
2021/07/27 14:29:40;;;;;;;;;;;24.20;61.30;;;;;;5043937;28;19924;-63
2021/07/27 14:32:06;;;;;;;;;;;24.10;61.20;;;;;;5042581;28;19917;-63
2021/07/27 14:34:31;;;;;;;;;;;24.10;61.20;;;;;;5043395;28;19913;-61